sensor_id;sensor_type;location;lat;lon;timestamp;temperature;humidity
59923;DHT22;45778;51.142;3.732;2023-07-30T00:01:41;15.10;99.90
59923;DHT22;45778;51.142;3.732;2023-07-30T00:04:06;15.10;99.90
59923;DHT22;45778;51.142;3.732;2023-07-30T00:06:32;15.10;99.90
59923;DHT22;45778;51.142;3.732;2023-07-30T00:08:57;15.10;99.90
59923;DHT22;45778;51.142;3.732;2023-07-30T00:11:23;15.10;99.90
59923;DHT22;45778;51.142;3.732;2023-07-30T00:13:49;15.10;99.90
59923;DHT22;45778;51.142;3.732;2023-07-30T00:16:14;15.00;99.90
59923;DHT22;45778;51.142;3.732;2023-07-30T00:18:40;15.00;99.90
59923;DHT22;45778;51.142;3.732;2023-07-30T00:21:06;15.00;99.90
59923;DHT22;45778;51.142;3.732;2023-07-30T00:23:31;15.00;99.90
59923;DHT22;45778;51.142;3.732;2023-07-30T00:25:57;15.00;99.90
59923;DHT22;45778;51.142;3.732;2023-07-30T00:28:22;15.00;99.90
59923;DHT22;45778;51.142;3.732;2023-07-30T00:30:48;15.00;99.90
59923;DHT22;45778;51.142;3.732;2023-07-30T00:33:14;15.00;99.90
59923;DHT22;45778;51.142;3.732;2023-07-30T00:35:39;15.00;99.90
59923;DHT22;45778;51.142;3.732;2023-07-30T00:38:05;15.00;99.90
59923;DHT22;45778;51.142;3.732;2023-07-30T00:40:31;14.90;99.90
59923;DHT22;45778;51.142;3.732;2023-07-30T00:42:56;14.80;99.90
59923;DHT22;45778;51.142;3.732;2023-07-30T00:45:22;14.80;99.90
59923;DHT22;45778;51.142;3.732;2023-07-30T00:47:48;14.80;99.90
59923;DHT22;45778;51.142;3.732;2023-07-30T00:50:14;14.80;99.90
59923;DHT22;45778;51.142;3.732;2023-07-30T00:52:40;14.80;99.90
59923;DHT22;45778;51.142;3.732;2023-07-30T00:55:07;14.80;99.90
59923;DHT22;45778;51.142;3.732;2023-07-30T00:57:34;14.80;99.90
59923;DHT22;45778;51.142;3.732;2023-07-30T01:00:01;14.70;99.90
59923;DHT22;45778;51.142;3.732;2023-07-30T01:02:31;14.70;99.90
59923;DHT22;45778;51.142;3.732;2023-07-30T01:04:57;14.70;99.90
59923;DHT22;45778;51.142;3.732;2023-07-30T01:07:25;14.70;99.90
59923;DHT22;45778;51.142;3.732;2023-07-30T01:09:51;14.70;99.90
59923;DHT22;45778;51.142;3.732;2023-07-30T01:12:17;14.70;99.90
59923;DHT22;45778;51.142;3.732;2023-07-30T01:14:44;14.60;99.90
59923;DHT22;45778;51.142;3.732;2023-07-30T01:17:11;14.60;99.90
59923;DHT22;45778;51.142;3.732;2023-07-30T01:19:37;14.50;99.90
59923;DHT22;45778;51.142;3.732;2023-07-30T01:22:03;14.50;99.90
59923;DHT22;45778;51.142;3.732;2023-07-30T01:24:29;14.50;99.90
59923;DHT22;45778;51.142;3.732;2023-07-30T01:26:55;14.50;99.90
59923;DHT22;45778;51.142;3.732;2023-07-30T01:29:29;14.50;99.90
59923;DHT22;45778;51.142;3.732;2023-07-30T01:32:01;14.50;99.90
59923;DHT22;45778;51.142;3.732;2023-07-30T01:34:28;14.50;99.90
59923;DHT22;45778;51.142;3.732;2023-07-30T01:36:54;14.50;99.90
59923;DHT22;45778;51.142;3.732;2023-07-30T01:39:21;14.40;99.90
59923;DHT22;45778;51.142;3.732;2023-07-30T01:41:47;14.40;99.90
59923;DHT22;45778;51.142;3.732;2023-07-30T01:44:13;14.40;99.90
59923;DHT22;45778;51.142;3.732;2023-07-30T01:46:38;14.40;99.90
59923;DHT22;45778;51.142;3.732;2023-07-30T01:49:04;14.40;99.90
59923;DHT22;45778;51.142;3.732;2023-07-30T01:51:30;14.30;99.90
59923;DHT22;45778;51.142;3.732;2023-07-30T01:53:55;14.30;99.90
59923;DHT22;45778;51.142;3.732;2023-07-30T01:56:21;14.30;99.90
59923;DHT22;45778;51.142;3.732;2023-07-30T01:58:46;14.30;99.90
59923;DHT22;45778;51.142;3.732;2023-07-30T02:01:12;14.30;99.90
59923;DHT22;45778;51.142;3.732;2023-07-30T02:03:38;14.30;99.90
59923;DHT22;45778;51.142;3.732;2023-07-30T02:06:03;14.30;99.90
59923;DHT22;45778;51.142;3.732;2023-07-30T02:08:29;14.30;99.90
59923;DHT22;45778;51.142;3.732;2023-07-30T02:10:58;14.20;99.90
59923;DHT22;45778;51.142;3.732;2023-07-30T02:13:25;14.30;99.90
59923;DHT22;45778;51.142;3.732;2023-07-30T02:15:51;14.30;99.90
59923;DHT22;45778;51.142;3.732;2023-07-30T02:18:17;14.30;99.90
59923;DHT22;45778;51.142;3.732;2023-07-30T02:20:43;14.30;99.90
59923;DHT22;45778;51.142;3.732;2023-07-30T02:23:09;14.40;99.90
59923;DHT22;45778;51.142;3.732;2023-07-30T02:25:34;14.40;99.90
59923;DHT22;45778;51.142;3.732;2023-07-30T02:28:01;14.30;99.90
59923;DHT22;45778;51.142;3.732;2023-07-30T02:30:27;14.30;99.90
59923;DHT22;45778;51.142;3.732;2023-07-30T02:32:53;14.30;99.90
59923;DHT22;45778;51.142;3.732;2023-07-30T02:35:19;14.20;99.90
59923;DHT22;45778;51.142;3.732;2023-07-30T02:37:45;14.30;99.90
59923;DHT22;45778;51.142;3.732;2023-07-30T02:40:11;14.20;99.90
59923;DHT22;45778;51.142;3.732;2023-07-30T02:42:36;14.20;99.90
59923;DHT22;45778;51.142;3.732;2023-07-30T02:45:03;14.20;99.90
59923;DHT22;45778;51.142;3.732;2023-07-30T02:47:28;14.20;99.90
59923;DHT22;45778;51.142;3.732;2023-07-30T02:49:54;14.20;99.90
59923;DHT22;45778;51.142;3.732;2023-07-30T02:52:20;14.20;99.90
59923;DHT22;45778;51.142;3.732;2023-07-30T02:54:45;14.20;99.90
59923;DHT22;45778;51.142;3.732;2023-07-30T02:57:11;14.20;99.90
59923;DHT22;45778;51.142;3.732;2023-07-30T02:59:38;14.20;99.90
59923;DHT22;45778;51.142;3.732;2023-07-30T03:02:04;14.20;99.90
59923;DHT22;45778;51.142;3.732;2023-07-30T03:04:33;14.20;99.90
59923;DHT22;45778;51.142;3.732;2023-07-30T03:06:59;14.30;99.90
59923;DHT22;45778;51.142;3.732;2023-07-30T03:09:24;14.20;99.90
59923;DHT22;45778;51.142;3.732;2023-07-30T03:11:50;14.20;99.90
59923;DHT22;45778;51.142;3.732;2023-07-30T03:14:16;14.20;99.90
59923;DHT22;45778;51.142;3.732;2023-07-30T03:16:49;14.30;99.90
59923;DHT22;45778;51.142;3.732;2023-07-30T03:19:14;14.30;99.90
59923;DHT22;45778;51.142;3.732;2023-07-30T03:21:40;14.30;99.90
59923;DHT22;45778;51.142;3.732;2023-07-30T03:24:06;14.30;99.90
59923;DHT22;45778;51.142;3.732;2023-07-30T03:26:32;14.30;99.90
59923;DHT22;45778;51.142;3.732;2023-07-30T03:28:57;14.40;99.90
59923;DHT22;45778;51.142;3.732;2023-07-30T03:31:23;14.40;99.90
59923;DHT22;45778;51.142;3.732;2023-07-30T03:33:49;14.30;99.90
59923;DHT22;45778;51.142;3.732;2023-07-30T03:36:14;14.40;99.90
59923;DHT22;45778;51.142;3.732;2023-07-30T03:38:41;14.40;99.90
59923;DHT22;45778;51.142;3.732;2023-07-30T03:41:06;14.40;99.90
59923;DHT22;45778;51.142;3.732;2023-07-30T03:43:33;14.40;99.90
59923;DHT22;45778;51.142;3.732;2023-07-30T03:45:59;14.40;99.90
59923;DHT22;45778;51.142;3.732;2023-07-30T03:48:24;14.40;99.90
59923;DHT22;45778;51.142;3.732;2023-07-30T03:50:50;14.50;99.90
59923;DHT22;45778;51.142;3.732;2023-07-30T03:53:16;14.50;99.90
59923;DHT22;45778;51.142;3.732;2023-07-30T03:55:41;14.50;99.90
59923;DHT22;45778;51.142;3.732;2023-07-30T03:58:07;14.50;99.90
59923;DHT22;45778;51.142;3.732;2023-07-30T04:00:33;14.50;99.90
59923;DHT22;45778;51.142;3.732;2023-07-30T04:02:59;14.50;99.90
59923;DHT22;45778;51.142;3.732;2023-07-30T04:05:24;14.60;99.90
59923;DHT22;45778;51.142;3.732;2023-07-30T04:07:50;14.50;99.90
59923;DHT22;45778;51.142;3.732;2023-07-30T04:10:16;14.50;99.90
59923;DHT22;45778;51.142;3.732;2023-07-30T04:12:42;14.60;99.90
59923;DHT22;45778;51.142;3.732;2023-07-30T04:15:08;14.60;99.90
59923;DHT22;45778;51.142;3.732;2023-07-30T04:17:35;14.60;99.90
59923;DHT22;45778;51.142;3.732;2023-07-30T04:20:01;14.50;99.90
59923;DHT22;45778;51.142;3.732;2023-07-30T04:22:27;14.50;99.90
59923;DHT22;45778;51.142;3.732;2023-07-30T04:24:53;14.50;99.90
59923;DHT22;45778;51.142;3.732;2023-07-30T04:27:19;14.50;99.90
59923;DHT22;45778;51.142;3.732;2023-07-30T04:29:44;14.60;99.90
59923;DHT22;45778;51.142;3.732;2023-07-30T04:32:10;14.50;99.90
59923;DHT22;45778;51.142;3.732;2023-07-30T04:34:36;14.60;99.90
59923;DHT22;45778;51.142;3.732;2023-07-30T04:37:02;14.70;99.90
59923;DHT22;45778;51.142;3.732;2023-07-30T04:39:29;14.70;99.90
59923;DHT22;45778;51.142;3.732;2023-07-30T04:41:54;14.70;99.90
59923;DHT22;45778;51.142;3.732;2023-07-30T04:44:20;14.70;99.90
59923;DHT22;45778;51.142;3.732;2023-07-30T04:46:46;14.80;99.90
59923;DHT22;45778;51.142;3.732;2023-07-30T04:49:11;14.80;99.90
59923;DHT22;45778;51.142;3.732;2023-07-30T04:51:37;14.80;99.90
59923;DHT22;45778;51.142;3.732;2023-07-30T04:54:03;14.90;99.90
59923;DHT22;45778;51.142;3.732;2023-07-30T04:56:29;14.90;99.90
59923;DHT22;45778;51.142;3.732;2023-07-30T04:58:55;14.90;99.90
59923;DHT22;45778;51.142;3.732;2023-07-30T05:01:20;15.00;99.90
59923;DHT22;45778;51.142;3.732;2023-07-30T05:03:46;15.00;99.90
59923;DHT22;45778;51.142;3.732;2023-07-30T05:06:12;15.00;99.90
59923;DHT22;45778;51.142;3.732;2023-07-30T05:08:37;15.10;99.90
59923;DHT22;45778;51.142;3.732;2023-07-30T05:11:03;15.10;99.90
59923;DHT22;45778;51.142;3.732;2023-07-30T05:13:29;15.10;99.90
59923;DHT22;45778;51.142;3.732;2023-07-30T05:15:54;15.10;99.90
59923;DHT22;45778;51.142;3.732;2023-07-30T05:18:20;15.10;99.90
59923;DHT22;45778;51.142;3.732;2023-07-30T05:20:46;15.20;99.90
59923;DHT22;45778;51.142;3.732;2023-07-30T05:23:12;15.30;99.90
59923;DHT22;45778;51.142;3.732;2023-07-30T05:25:37;15.30;99.90
59923;DHT22;45778;51.142;3.732;2023-07-30T05:28:03;15.40;99.90
59923;DHT22;45778;51.142;3.732;2023-07-30T05:30:28;15.40;99.90
59923;DHT22;45778;51.142;3.732;2023-07-30T05:32:55;15.40;99.90
59923;DHT22;45778;51.142;3.732;2023-07-30T05:35:20;15.50;99.90
59923;DHT22;45778;51.142;3.732;2023-07-30T05:37:47;15.50;99.90
59923;DHT22;45778;51.142;3.732;2023-07-30T05:40:12;15.50;99.90
59923;DHT22;45778;51.142;3.732;2023-07-30T05:42:38;15.50;99.90
59923;DHT22;45778;51.142;3.732;2023-07-30T05:45:04;15.60;99.90
59923;DHT22;45778;51.142;3.732;2023-07-30T05:47:30;15.70;99.90
59923;DHT22;45778;51.142;3.732;2023-07-30T05:49:55;15.80;99.90
59923;DHT22;45778;51.142;3.732;2023-07-30T05:52:21;15.90;99.90
59923;DHT22;45778;51.142;3.732;2023-07-30T05:54:47;15.90;99.90
59923;DHT22;45778;51.142;3.732;2023-07-30T05:57:12;16.00;99.90
59923;DHT22;45778;51.142;3.732;2023-07-30T05:59:38;16.00;99.90
59923;DHT22;45778;51.142;3.732;2023-07-30T06:02:04;16.00;99.90
59923;DHT22;45778;51.142;3.732;2023-07-30T06:04:30;16.10;99.90
59923;DHT22;45778;51.142;3.732;2023-07-30T06:06:57;16.10;99.90
59923;DHT22;45778;51.142;3.732;2023-07-30T06:09:23;16.10;99.90
59923;DHT22;45778;51.142;3.732;2023-07-30T06:11:48;16.10;99.90
59923;DHT22;45778;51.142;3.732;2023-07-30T06:14:14;16.20;99.90
59923;DHT22;45778;51.142;3.732;2023-07-30T06:16:40;16.40;99.90
59923;DHT22;45778;51.142;3.732;2023-07-30T06:19:05;16.50;99.90
59923;DHT22;45778;51.142;3.732;2023-07-30T06:21:31;16.60;99.90
59923;DHT22;45778;51.142;3.732;2023-07-30T06:23:57;16.70;99.90
59923;DHT22;45778;51.142;3.732;2023-07-30T06:26:22;16.70;99.90
59923;DHT22;45778;51.142;3.732;2023-07-30T06:28:48;16.80;99.90
59923;DHT22;45778;51.142;3.732;2023-07-30T06:31:14;16.80;99.90
59923;DHT22;45778;51.142;3.732;2023-07-30T06:33:39;16.90;99.90
59923;DHT22;45778;51.142;3.732;2023-07-30T06:36:05;16.90;99.90
59923;DHT22;45778;51.142;3.732;2023-07-30T06:38:31;16.90;99.90
59923;DHT22;45778;51.142;3.732;2023-07-30T06:40:56;17.00;99.90
59923;DHT22;45778;51.142;3.732;2023-07-30T06:43:25;17.00;99.90
59923;DHT22;45778;51.142;3.732;2023-07-30T06:45:50;17.00;99.90
59923;DHT22;45778;51.142;3.732;2023-07-30T06:48:16;17.00;99.90
59923;DHT22;45778;51.142;3.732;2023-07-30T06:50:42;17.10;99.90
59923;DHT22;45778;51.142;3.732;2023-07-30T06:53:07;17.20;99.90
59923;DHT22;45778;51.142;3.732;2023-07-30T06:55:33;17.30;99.90
59923;DHT22;45778;51.142;3.732;2023-07-30T06:57:59;17.30;99.90
59923;DHT22;45778;51.142;3.732;2023-07-30T07:00:24;17.40;99.90
59923;DHT22;45778;51.142;3.732;2023-07-30T07:02:50;17.40;99.90
59923;DHT22;45778;51.142;3.732;2023-07-30T07:05:16;17.50;99.90
59923;DHT22;45778;51.142;3.732;2023-07-30T07:07:42;17.60;99.90
59923;DHT22;45778;51.142;3.732;2023-07-30T07:10:08;17.70;99.90
59923;DHT22;45778;51.142;3.732;2023-07-30T07:12:36;17.70;99.90
59923;DHT22;45778;51.142;3.732;2023-07-30T07:15:03;17.70;99.90
59923;DHT22;45778;51.142;3.732;2023-07-30T07:17:29;17.70;99.90
59923;DHT22;45778;51.142;3.732;2023-07-30T07:19:54;17.70;99.90
59923;DHT22;45778;51.142;3.732;2023-07-30T07:22:20;17.70;99.90
59923;DHT22;45778;51.142;3.732;2023-07-30T07:24:46;17.70;99.90
59923;DHT22;45778;51.142;3.732;2023-07-30T07:27:12;17.70;99.90
59923;DHT22;45778;51.142;3.732;2023-07-30T07:29:38;17.70;99.90
59923;DHT22;45778;51.142;3.732;2023-07-30T07:32:04;17.80;99.90
59923;DHT22;45778;51.142;3.732;2023-07-30T07:34:29;17.90;99.90
59923;DHT22;45778;51.142;3.732;2023-07-30T07:36:55;18.00;99.90
59923;DHT22;45778;51.142;3.732;2023-07-30T07:39:21;18.10;99.90
59923;DHT22;45778;51.142;3.732;2023-07-30T07:41:46;18.10;99.90
59923;DHT22;45778;51.142;3.732;2023-07-30T07:44:12;18.00;99.90
59923;DHT22;45778;51.142;3.732;2023-07-30T07:46:37;17.90;99.90
59923;DHT22;45778;51.142;3.732;2023-07-30T07:49:03;17.90;99.90
59923;DHT22;45778;51.142;3.732;2023-07-30T07:51:29;18.00;99.90
59923;DHT22;45778;51.142;3.732;2023-07-30T07:53:55;18.00;99.90
59923;DHT22;45778;51.142;3.732;2023-07-30T07:56:20;18.10;99.90
59923;DHT22;45778;51.142;3.732;2023-07-30T07:58:46;18.10;99.90
59923;DHT22;45778;51.142;3.732;2023-07-30T08:01:11;18.20;99.90
59923;DHT22;45778;51.142;3.732;2023-07-30T08:03:37;18.10;99.90
59923;DHT22;45778;51.142;3.732;2023-07-30T08:06:03;18.30;99.90
59923;DHT22;45778;51.142;3.732;2023-07-30T08:08:28;18.30;99.90
59923;DHT22;45778;51.142;3.732;2023-07-30T08:10:54;18.30;99.90
59923;DHT22;45778;51.142;3.732;2023-07-30T08:13:20;18.40;99.90
59923;DHT22;45778;51.142;3.732;2023-07-30T08:15:46;18.50;99.90
59923;DHT22;45778;51.142;3.732;2023-07-30T08:18:12;18.40;99.90
59923;DHT22;45778;51.142;3.732;2023-07-30T08:20:38;18.40;99.90
59923;DHT22;45778;51.142;3.732;2023-07-30T08:23:04;18.30;99.90
59923;DHT22;45778;51.142;3.732;2023-07-30T08:25:29;18.20;99.90
59923;DHT22;45778;51.142;3.732;2023-07-30T08:27:55;18.30;99.90
59923;DHT22;45778;51.142;3.732;2023-07-30T08:30:21;18.30;99.90
59923;DHT22;45778;51.142;3.732;2023-07-30T08:32:46;18.30;99.90
59923;DHT22;45778;51.142;3.732;2023-07-30T08:35:12;18.30;99.90
59923;DHT22;45778;51.142;3.732;2023-07-30T08:37:38;18.40;99.90
59923;DHT22;45778;51.142;3.732;2023-07-30T08:40:04;18.40;99.90
59923;DHT22;45778;51.142;3.732;2023-07-30T08:42:30;18.40;99.90
59923;DHT22;45778;51.142;3.732;2023-07-30T08:44:56;18.40;99.90
59923;DHT22;45778;51.142;3.732;2023-07-30T08:47:21;18.60;99.90
59923;DHT22;45778;51.142;3.732;2023-07-30T08:49:47;18.60;99.90
59923;DHT22;45778;51.142;3.732;2023-07-30T08:52:13;18.40;99.90
59923;DHT22;45778;51.142;3.732;2023-07-30T08:54:41;18.50;99.90
59923;DHT22;45778;51.142;3.732;2023-07-30T08:57:08;18.50;99.90
59923;DHT22;45778;51.142;3.732;2023-07-30T08:59:39;18.50;99.90
59923;DHT22;45778;51.142;3.732;2023-07-30T09:02:13;18.70;99.90
59923;DHT22;45778;51.142;3.732;2023-07-30T09:04:41;18.90;99.90
59923;DHT22;45778;51.142;3.732;2023-07-30T09:07:09;19.00;99.90
59923;DHT22;45778;51.142;3.732;2023-07-30T09:09:36;19.10;99.90
59923;DHT22;45778;51.142;3.732;2023-07-30T09:12:03;18.80;99.90
59923;DHT22;45778;51.142;3.732;2023-07-30T09:14:28;18.90;99.90
59923;DHT22;45778;51.142;3.732;2023-07-30T09:16:57;19.20;99.90
59923;DHT22;45778;51.142;3.732;2023-07-30T09:19:26;19.50;99.90
59923;DHT22;45778;51.142;3.732;2023-07-30T09:21:53;19.40;99.90
59923;DHT22;45778;51.142;3.732;2023-07-30T09:24:22;19.40;99.90
59923;DHT22;45778;51.142;3.732;2023-07-30T09:26:48;19.50;99.90
59923;DHT22;45778;51.142;3.732;2023-07-30T09:29:14;19.50;99.90
59923;DHT22;45778;51.142;3.732;2023-07-30T09:31:47;19.60;99.90
59923;DHT22;45778;51.142;3.732;2023-07-30T09:34:17;19.60;99.90
59923;DHT22;45778;51.142;3.732;2023-07-30T09:36:47;19.70;99.90
59923;DHT22;45778;51.142;3.732;2023-07-30T09:39:26;19.90;99.90
59923;DHT22;45778;51.142;3.732;2023-07-30T09:41:53;20.10;99.90
59923;DHT22;45778;51.142;3.732;2023-07-30T09:44:24;20.50;99.90
59923;DHT22;45778;51.142;3.732;2023-07-30T09:46:51;20.70;99.90
59923;DHT22;45778;51.142;3.732;2023-07-30T09:49:17;20.80;99.90
59923;DHT22;45778;51.142;3.732;2023-07-30T09:51:43;20.60;99.90
59923;DHT22;45778;51.142;3.732;2023-07-30T09:54:11;20.40;99.90
59923;DHT22;45778;51.142;3.732;2023-07-30T09:56:39;20.60;99.90
59923;DHT22;45778;51.142;3.732;2023-07-30T09:59:06;20.80;99.90
59923;DHT22;45778;51.142;3.732;2023-07-30T10:01:36;21.20;99.90
59923;DHT22;45778;51.142;3.732;2023-07-30T10:04:09;20.90;99.90
59923;DHT22;45778;51.142;3.732;2023-07-30T10:06:39;20.20;99.90
59923;DHT22;45778;51.142;3.732;2023-07-30T10:09:07;19.90;99.90
59923;DHT22;45778;51.142;3.732;2023-07-30T10:11:36;19.70;99.90
59923;DHT22;45778;51.142;3.732;2023-07-30T10:14:02;19.50;99.90
59923;DHT22;45778;51.142;3.732;2023-07-30T10:16:31;19.40;99.90
59923;DHT22;45778;51.142;3.732;2023-07-30T10:18:57;19.70;99.90
59923;DHT22;45778;51.142;3.732;2023-07-30T10:21:25;19.80;99.90
59923;DHT22;45778;51.142;3.732;2023-07-30T10:24:17;20.10;99.90
59923;DHT22;45778;51.142;3.732;2023-07-30T10:26:43;20.20;99.90
59923;DHT22;45778;51.142;3.732;2023-07-30T10:29:12;20.50;99.90
59923;DHT22;45778;51.142;3.732;2023-07-30T10:31:39;20.90;99.90
59923;DHT22;45778;51.142;3.732;2023-07-30T10:34:10;21.40;99.90
59923;DHT22;45778;51.142;3.732;2023-07-30T10:36:51;21.20;99.90
59923;DHT22;45778;51.142;3.732;2023-07-30T10:39:26;20.70;99.90
59923;DHT22;45778;51.142;3.732;2023-07-30T10:41:58;20.60;99.90
59923;DHT22;45778;51.142;3.732;2023-07-30T10:44:33;20.80;99.90
59923;DHT22;45778;51.142;3.732;2023-07-30T10:47:00;21.00;99.90
59923;DHT22;45778;51.142;3.732;2023-07-30T10:49:26;20.70;99.90
59923;DHT22;45778;51.142;3.732;2023-07-30T10:51:54;20.60;99.90
59923;DHT22;45778;51.142;3.732;2023-07-30T10:54:20;20.70;99.90
59923;DHT22;45778;51.142;3.732;2023-07-30T10:56:46;21.30;99.90
59923;DHT22;45778;51.142;3.732;2023-07-30T10:59:14;21.40;99.90
59923;DHT22;45778;51.142;3.732;2023-07-30T11:01:43;20.90;99.90
59923;DHT22;45778;51.142;3.732;2023-07-30T11:04:17;20.70;99.90
59923;DHT22;45778;51.142;3.732;2023-07-30T11:06:47;20.40;99.90
59923;DHT22;45778;51.142;3.732;2023-07-30T11:09:21;20.40;99.90
59923;DHT22;45778;51.142;3.732;2023-07-30T11:11:47;20.60;99.90
59923;DHT22;45778;51.142;3.732;2023-07-30T11:14:17;20.80;99.90
59923;DHT22;45778;51.142;3.732;2023-07-30T11:16:58;20.90;99.90
59923;DHT22;45778;51.142;3.732;2023-07-30T11:19:25;21.20;99.90
59923;DHT22;45778;51.142;3.732;2023-07-30T11:21:53;21.70;99.90
59923;DHT22;45778;51.142;3.732;2023-07-30T11:24:22;22.00;99.90
59923;DHT22;45778;51.142;3.732;2023-07-30T11:26:59;22.20;99.90
59923;DHT22;45778;51.142;3.732;2023-07-30T11:29:25;22.20;99.90
59923;DHT22;45778;51.142;3.732;2023-07-30T11:31:50;22.10;99.90
59923;DHT22;45778;51.142;3.732;2023-07-30T11:34:16;21.90;99.90
59923;DHT22;45778;51.142;3.732;2023-07-30T11:36:44;21.80;99.90
59923;DHT22;45778;51.142;3.732;2023-07-30T11:39:10;21.80;99.70
59923;DHT22;45778;51.142;3.732;2023-07-30T11:41:36;21.60;99.60
59923;DHT22;45778;51.142;3.732;2023-07-30T11:44:03;21.70;99.90
59923;DHT22;45778;51.142;3.732;2023-07-30T11:46:29;21.70;99.40
59923;DHT22;45778;51.142;3.732;2023-07-30T11:49:12;21.70;98.00
59923;DHT22;45778;51.142;3.732;2023-07-30T11:51:39;21.80;97.90
59923;DHT22;45778;51.142;3.732;2023-07-30T11:54:05;21.80;97.50
59923;DHT22;45778;51.142;3.732;2023-07-30T11:56:34;22.00;97.10
59923;DHT22;45778;51.142;3.732;2023-07-30T11:59:02;22.20;96.90
59923;DHT22;45778;51.142;3.732;2023-07-30T12:01:30;22.50;96.30
59923;DHT22;45778;51.142;3.732;2023-07-30T12:04:00;22.50;97.20
59923;DHT22;45778;51.142;3.732;2023-07-30T12:09:18;22.50;97.10
59923;DHT22;45778;51.142;3.732;2023-07-30T12:11:59;22.90;96.80
59923;DHT22;45778;51.142;3.732;2023-07-30T12:14:27;23.20;96.30
59923;DHT22;45778;51.142;3.732;2023-07-30T12:16:59;22.70;96.40
59923;DHT22;45778;51.142;3.732;2023-07-30T12:19:26;22.70;96.60
59923;DHT22;45778;51.142;3.732;2023-07-30T12:21:51;22.80;95.70
59923;DHT22;45778;51.142;3.732;2023-07-30T12:24:17;22.60;96.00
59923;DHT22;45778;51.142;3.732;2023-07-30T12:26:43;22.30;96.70
59923;DHT22;45778;51.142;3.732;2023-07-30T12:29:08;22.20;96.80
59923;DHT22;45778;51.142;3.732;2023-07-30T12:31:34;22.30;97.60
59923;DHT22;45778;51.142;3.732;2023-07-30T12:34:00;22.40;96.80
59923;DHT22;45778;51.142;3.732;2023-07-30T12:36:25;22.40;98.00
59923;DHT22;45778;51.142;3.732;2023-07-30T12:38:52;22.80;97.10
59923;DHT22;45778;51.142;3.732;2023-07-30T12:41:19;23.10;95.90
59923;DHT22;45778;51.142;3.732;2023-07-30T12:43:54;22.60;96.10
59923;DHT22;45778;51.142;3.732;2023-07-30T12:46:22;22.30;96.10
59923;DHT22;45778;51.142;3.732;2023-07-30T12:48:48;22.90;96.20
59923;DHT22;45778;51.142;3.732;2023-07-30T12:51:14;22.90;96.40
59923;DHT22;45778;51.142;3.732;2023-07-30T12:53:40;23.70;94.40
59923;DHT22;45778;51.142;3.732;2023-07-30T12:56:05;23.90;93.90
59923;DHT22;45778;51.142;3.732;2023-07-30T12:58:31;24.50;93.90
59923;DHT22;45778;51.142;3.732;2023-07-30T13:00:57;24.30;92.20
59923;DHT22;45778;51.142;3.732;2023-07-30T13:03:23;24.40;93.20
59923;DHT22;45778;51.142;3.732;2023-07-30T13:05:48;24.20;93.90
59923;DHT22;45778;51.142;3.732;2023-07-30T13:08:14;23.80;94.30
59923;DHT22;45778;51.142;3.732;2023-07-30T13:10:40;23.90;94.50
59923;DHT22;45778;51.142;3.732;2023-07-30T13:13:05;24.50;93.10
59923;DHT22;45778;51.142;3.732;2023-07-30T13:15:31;24.50;93.30
59923;DHT22;45778;51.142;3.732;2023-07-30T13:17:57;24.60;92.30
59923;DHT22;45778;51.142;3.732;2023-07-30T13:20:22;24.50;92.40
59923;DHT22;45778;51.142;3.732;2023-07-30T13:22:50;24.20;93.30
59923;DHT22;45778;51.142;3.732;2023-07-30T13:25:16;24.20;92.40
59923;DHT22;45778;51.142;3.732;2023-07-30T13:27:42;24.50;92.40
59923;DHT22;45778;51.142;3.732;2023-07-30T13:30:08;24.20;92.40
59923;DHT22;45778;51.142;3.732;2023-07-30T13:32:33;23.20;93.50
59923;DHT22;45778;51.142;3.732;2023-07-30T13:34:59;22.60;95.20
59923;DHT22;45778;51.142;3.732;2023-07-30T13:37:25;22.60;96.70
59923;DHT22;45778;51.142;3.732;2023-07-30T13:39:52;22.30;97.20
59923;DHT22;45778;51.142;3.732;2023-07-30T13:42:17;22.20;97.60
59923;DHT22;45778;51.142;3.732;2023-07-30T13:44:43;22.50;97.30
59923;DHT22;45778;51.142;3.732;2023-07-30T13:47:08;22.60;97.80
59923;DHT22;45778;51.142;3.732;2023-07-30T13:49:35;22.40;98.00
59923;DHT22;45778;51.142;3.732;2023-07-30T13:52:00;22.90;97.10
59923;DHT22;45778;51.142;3.732;2023-07-30T13:54:26;22.60;97.40
59923;DHT22;45778;51.142;3.732;2023-07-30T13:56:52;22.10;98.60
59923;DHT22;45778;51.142;3.732;2023-07-30T13:59:17;21.60;99.10
59923;DHT22;45778;51.142;3.732;2023-07-30T14:01:43;21.40;99.90
59923;DHT22;45778;51.142;3.732;2023-07-30T14:04:09;21.20;99.90
59923;DHT22;45778;51.142;3.732;2023-07-30T14:06:34;21.20;99.90
59923;DHT22;45778;51.142;3.732;2023-07-30T14:09:00;21.00;99.90
59923;DHT22;45778;51.142;3.732;2023-07-30T14:11:27;21.00;99.90
59923;DHT22;45778;51.142;3.732;2023-07-30T14:13:53;21.20;99.90
59923;DHT22;45778;51.142;3.732;2023-07-30T14:16:19;21.40;99.90
59923;DHT22;45778;51.142;3.732;2023-07-30T14:18:44;21.80;99.90
59923;DHT22;45778;51.142;3.732;2023-07-30T14:21:10;22.20;99.50
59923;DHT22;45778;51.142;3.732;2023-07-30T14:23:38;21.90;99.70
59923;DHT22;45778;51.142;3.732;2023-07-30T14:26:04;21.30;99.90
59923;DHT22;45778;51.142;3.732;2023-07-30T14:28:30;20.70;99.90
59923;DHT22;45778;51.142;3.732;2023-07-30T14:30:56;20.50;99.90
59923;DHT22;45778;51.142;3.732;2023-07-30T14:33:21;20.50;99.90
59923;DHT22;45778;51.142;3.732;2023-07-30T14:35:47;20.40;99.90
59923;DHT22;45778;51.142;3.732;2023-07-30T14:38:13;20.60;99.90
59923;DHT22;45778;51.142;3.732;2023-07-30T14:40:39;20.30;99.90
59923;DHT22;45778;51.142;3.732;2023-07-30T14:43:04;20.20;99.90
59923;DHT22;45778;51.142;3.732;2023-07-30T14:45:30;20.10;99.90
59923;DHT22;45778;51.142;3.732;2023-07-30T14:47:55;19.60;99.90
59923;DHT22;45778;51.142;3.732;2023-07-30T14:50:22;19.30;99.90
59923;DHT22;45778;51.142;3.732;2023-07-30T14:52:48;18.90;99.90
59923;DHT22;45778;51.142;3.732;2023-07-30T14:55:14;18.50;99.90
59923;DHT22;45778;51.142;3.732;2023-07-30T14:57:40;18.20;99.90
59923;DHT22;45778;51.142;3.732;2023-07-30T15:00:06;17.60;99.90
59923;DHT22;45778;51.142;3.732;2023-07-30T15:02:37;17.10;99.90
59923;DHT22;45778;51.142;3.732;2023-07-30T15:05:03;16.90;99.90
59923;DHT22;45778;51.142;3.732;2023-07-30T15:07:29;16.90;99.90
59923;DHT22;45778;51.142;3.732;2023-07-30T15:09:55;16.80;99.90
59923;DHT22;45778;51.142;3.732;2023-07-30T15:12:21;16.70;99.90
59923;DHT22;45778;51.142;3.732;2023-07-30T15:14:47;16.70;99.90
59923;DHT22;45778;51.142;3.732;2023-07-30T15:17:12;16.90;99.90
59923;DHT22;45778;51.142;3.732;2023-07-30T15:19:39;17.00;99.90
59923;DHT22;45778;51.142;3.732;2023-07-30T15:22:05;17.10;99.90
59923;DHT22;45778;51.142;3.732;2023-07-30T15:24:31;17.20;99.90
59923;DHT22;45778;51.142;3.732;2023-07-30T15:26:57;17.40;99.90
59923;DHT22;45778;51.142;3.732;2023-07-30T15:29:23;17.50;99.90